Time;durP1;ratioP1;P1;durP2;ratioP2;P2;SDS_P1;SDS_P2;PMS_P1;PMS_P2;Temp;Humidity;BMP_temperature;BMP_pressure;BME280_temperature;BME280_humidity;BME280_pressure;Samples;Min_cycle;Max_cycle;Signal;HPM_P1;HPM_P2
2023/12/23 00:01:34;;;;;;;;;;;;;;;;;;5092909;28;19953;-80
2023/12/23 00:04:00;;;;;;;;;;;;;;;;;;5093057;28;19957;-81
2023/12/23 00:06:25;;;;;;;;;;;;;;;;;;5095024;28;19912;-81
2023/12/23 00:08:50;;;;;;;;;;;;;;;;;;5096249;28;19953;-81
2023/12/23 00:11:15;;;;;;;;;;;;;;;;;;5096310;28;19908;-81
2023/12/23 00:13:40;;;;;;;;;;;;;;;;;;5094639;28;19915;-81
2023/12/23 00:16:05;;;;;;;;;;;;;;;;;;5094873;28;20376;-81
2023/12/23 00:18:30;;;;;;;;;;;;;;;;;;5096062;28;19908;-81
2023/12/23 00:20:55;;;;;;;;;;;;;;;;;;5096394;28;19930;-80
2023/12/23 00:23:21;;;;;;;;;;;;;;;;;;5096105;28;20378;-81
2023/12/23 00:25:46;;;;;;;;;;;;;;;;;;5094839;28;20456;-80
2023/12/23 00:28:11;;;;;;;;;;;;;;;;;;5094948;28;20003;-81
2023/12/23 00:30:36;;;;;;;;;;;;;;;;;;5094745;28;19983;-81
2023/12/23 00:33:02;;;;;;;;;;;;;;;;;;5096097;28;19913;-80
2023/12/23 00:35:28;;;;;;;;;;;;;;;;;;5095380;28;20281;-81
2023/12/23 00:37:53;;;;;;;;;;;;;;;;;;5095925;28;19908;-81
2023/12/23 00:40:18;;;;;;;;;;;;;;;;;;5095442;28;19908;-80
2023/12/23 00:42:43;;;;;;;;;;;;;;;;;;5095234;28;19954;-80
2023/12/23 00:45:08;;;;;;;;;;;;;;;;;;5094078;28;19957;-81
2023/12/23 00:47:33;;;;;;;;;;;;;;;;;;5090267;28;20430;-81
2023/12/23 00:49:58;;;;;;;;;;;;;;;;;;5090538;28;19915;-81
2023/12/23 00:52:23;;;;;;;;;;;;;;;;;;5095209;28;19994;-80
2023/12/23 00:54:49;;;;;;;;;;;;;;;;;;5096072;28;19962;-81
2023/12/23 00:57:14;;;;;;;;;;;;;;;;;;5093792;28;19908;-80
2023/12/23 00:59:39;;;;;;;;;;;;;;;;;;5093915;28;19908;-81
2023/12/23 01:02:04;;;;;;;;;;;;;;;;;;5094069;28;20042;-80
2023/12/23 01:04:29;;;;;;;;;;;;;;;;;;5095754;28;19931;-81
2023/12/23 01:06:55;;;;;;;;;;;;;;;;;;5095299;28;19912;-81
2023/12/23 01:09:20;;;;;;;;;;;;;;;;;;5095202;28;20351;-81
2023/12/23 01:11:45;;;;;;;;;;;;;;;;;;5095317;28;19954;-80
2023/12/23 01:14:10;;;;;;;;;;;;;;;;;;5095159;28;19919;-80
2023/12/23 01:16:35;;;;;;;;;;;;;;;;;;5095503;28;19908;-81
2023/12/23 01:19:00;;;;;;;;;;;;;;;;;;5093965;28;20182;-80
2023/12/23 01:21:25;;;;;;;;;;;;;;;;;;5093484;28;19912;-81
2023/12/23 01:23:51;;;;;;;;;;;;;;;;;;5094151;28;19935;-80
2023/12/23 01:26:16;;;;;;;;;;;;;;;;;;5093970;28;19912;-81
2023/12/23 01:28:41;;;;;;;;;;;;;;;;;;5093878;28;19915;-80
2023/12/23 01:31:06;;;;;;;;;;;;;;;;;;5094942;28;19908;-80
2023/12/23 01:33:31;;;;;;;;;;;;;;;;;;5095022;28;19908;-80
2023/12/23 01:35:56;;;;;;;;;;;;;;;;;;5093902;28;20297;-81
2023/12/23 01:38:22;;;;;;;;;;;;;;;;;;5093958;28;19915;-81
2023/12/23 01:40:47;;;;;;;;;;;;;;;;;;5093156;28;19908;-81
2023/12/23 01:43:12;;;;;;;;;;;;;;;;;;5094732;28;19908;-80
2023/12/23 01:45:37;;;;;;;;;;;;;;;;;;5094597;28;19908;-81
2023/12/23 01:48:02;;;;;;;;;;;;;;;;;;5087521;28;19920;-81
2023/12/23 01:50:27;;;;;;;;;;;;;;;;;;5093617;28;19908;-81
2023/12/23 01:52:52;;;;;;;;;;;;;;;;;;5093023;28;19968;-81
2023/12/23 01:55:17;;;;;;;;;;;;;;;;;;5093137;28;20262;-81
2023/12/23 01:57:43;;;;;;;;;;;;;;;;;;5093447;28;19908;-81
2023/12/23 02:00:08;;;;;;;;;;;;;;;;;;5094930;28;19937;-81
2023/12/23 02:02:38;;;;;;;;;;;;;;;;;;5093031;28;19914;-81
2023/12/23 02:05:03;;;;;;;;;;;;;;;;;;5093056;28;19914;-80
2023/12/23 02:07:28;;;;;;;;;;;;;;;;;;5094441;28;20015;-80
2023/12/23 02:09:53;;;;;;;;;;;;;;;;;;5094247;28;19915;-81
2023/12/23 02:12:18;;;;;;;;;;;;;;;;;;5093003;28;20015;-81
2023/12/23 02:14:43;;;;;;;;;;;;;;;;;;5093169;28;19955;-81
2023/12/23 02:17:08;;;;;;;;;;;;;;;;;;5093094;28;19943;-81
2023/12/23 02:19:33;;;;;;;;;;;;;;;;;;5094195;28;20300;-81
2023/12/23 02:21:58;;;;;;;;;;;;;;;;;;5092842;28;20370;-81
2023/12/23 02:24:24;;;;;;;;;;;;;;;;;;5095177;28;19915;-81
2023/12/23 02:26:49;;;;;;;;;;;;;;;;;;5093216;28;19931;-81
2023/12/23 02:29:14;;;;;;;;;;;;;;;;;;5094068;28;19912;-81
2023/12/23 02:31:39;;;;;;;;;;;;;;;;;;5088805;28;19912;-81
2023/12/23 02:34:04;;;;;;;;;;;;;;;;;;5090604;28;19961;-81
2023/12/23 02:36:29;;;;;;;;;;;;;;;;;;5092621;28;19916;-80
2023/12/23 02:38:54;;;;;;;;;;;;;;;;;;5094064;28;19961;-81
2023/12/23 02:41:20;;;;;;;;;;;;;;;;;;5092297;28;20353;-81
2023/12/23 02:43:45;;;;;;;;;;;;;;;;;;5092943;28;19908;-81
2023/12/23 02:46:10;;;;;;;;;;;;;;;;;;5093842;28;19912;-81
2023/12/23 02:48:35;;;;;;;;;;;;;;;;;;5092488;28;19918;-81
2023/12/23 02:51:00;;;;;;;;;;;;;;;;;;5092304;28;19908;-81
2023/12/23 02:53:25;;;;;;;;;;;;;;;;;;5093766;28;19916;-81
2023/12/23 02:55:50;;;;;;;;;;;;;;;;;;5092525;28;19913;-81
2023/12/23 02:58:15;;;;;;;;;;;;;;;;;;5095142;28;19908;-81
2023/12/23 03:00:40;;;;;;;;;;;;;;;;;;5095828;28;19957;-81
2023/12/23 03:03:06;;;;;;;;;;;;;;;;;;5096066;28;20297;-81
2023/12/23 03:05:31;;;;;;;;;;;;;;;;;;5087362;28;19912;-81
2023/12/23 03:07:56;;;;;;;;;;;;;;;;;;5095582;28;19919;-81
2023/12/23 03:10:21;;;;;;;;;;;;;;;;;;5095211;28;19919;-81
2023/12/23 03:12:46;;;;;;;;;;;;;;;;;;5094803;28;19919;-81
2023/12/23 03:15:11;;;;;;;;;;;;;;;;;;5095150;28;20020;-81
2023/12/23 03:17:36;;;;;;;;;;;;;;;;;;5094891;28;20378;-81
2023/12/23 03:20:01;;;;;;;;;;;;;;;;;;5094518;28;19909;-81
2023/12/23 03:22:27;;;;;;;;;;;;;;;;;;5094015;28;19944;-81
2023/12/23 03:24:52;;;;;;;;;;;;;;;;;;5090752;28;19908;-81
2023/12/23 03:27:18;;;;;;;;;;;;;;;;;;5095294;28;19916;-81
2023/12/23 03:29:43;;;;;;;;;;;;;;;;;;5094922;28;19934;-80
2023/12/23 03:32:09;;;;;;;;;;;;;;;;;;5093215;28;19908;-81
2023/12/23 03:34:34;;;;;;;;;;;;;;;;;;5094750;28;19908;-80
2023/12/23 03:36:59;;;;;;;;;;;;;;;;;;5093719;28;19912;-80
2023/12/23 03:39:24;;;;;;;;;;;;;;;;;;5094313;28;20338;-81
2023/12/23 03:41:49;;;;;;;;;;;;;;;;;;5094436;28;20461;-80
2023/12/23 03:44:14;;;;;;;;;;;;;;;;;;5086167;28;19908;-81
2023/12/23 03:46:39;;;;;;;;;;;;;;;;;;5094090;28;19912;-81
2023/12/23 03:49:04;;;;;;;;;;;;;;;;;;5093122;28;19915;-81
2023/12/23 03:51:29;;;;;;;;;;;;;;;;;;5092621;28;20282;-81
2023/12/23 03:53:54;;;;;;;;;;;;;;;;;;5094346;28;19943;-81
2023/12/23 03:56:20;;;;;;;;;;;;;;;;;;5092942;28;19950;-81
2023/12/23 03:58:45;;;;;;;;;;;;;;;;;;5092971;28;20281;-80
2023/12/23 04:01:10;;;;;;;;;;;;;;;;;;5094021;28;20358;-81
2023/12/23 04:03:35;;;;;;;;;;;;;;;;;;5092856;28;19916;-81
2023/12/23 04:06:01;;;;;;;;;;;;;;;;;;5092733;28;19908;-81
2023/12/23 04:08:26;;;;;;;;;;;;;;;;;;5084130;28;19908;-81
2023/12/23 04:10:51;;;;;;;;;;;;;;;;;;5091691;28;19908;-81
2023/12/23 04:13:16;;;;;;;;;;;;;;;;;;5093936;28;19908;-80
2023/12/23 04:15:41;;;;;;;;;;;;;;;;;;5093938;28;19908;-80
2023/12/23 04:18:07;;;;;;;;;;;;;;;;;;5093854;28;20012;-81
2023/12/23 04:20:32;;;;;;;;;;;;;;;;;;5092423;28;19908;-81
2023/12/23 04:22:57;;;;;;;;;;;;;;;;;;5093943;28;19957;-81
2023/12/23 04:25:22;;;;;;;;;;;;;;;;;;5093691;28;19943;-81
2023/12/23 04:27:48;;;;;;;;;;;;;;;;;;5092417;28;19916;-80
2023/12/23 04:30:13;;;;;;;;;;;;;;;;;;5093484;28;19911;-81
2023/12/23 04:32:38;;;;;;;;;;;;;;;;;;5089522;28;19915;-81
2023/12/23 04:35:03;;;;;;;;;;;;;;;;;;5089205;28;19908;-81
2023/12/23 04:37:29;;;;;;;;;;;;;;;;;;5093146;28;19999;-81
2023/12/23 04:39:54;;;;;;;;;;;;;;;;;;5094736;28;19909;-81
2023/12/23 04:42:19;;;;;;;;;;;;;;;;;;5093482;28;19908;-81
2023/12/23 04:44:44;;;;;;;;;;;;;;;;;;5093137;28;19915;-81
2023/12/23 04:47:09;;;;;;;;;;;;;;;;;;5094234;28;20357;-81
2023/12/23 04:49:34;;;;;;;;;;;;;;;;;;5092673;28;20323;-81
2023/12/23 04:51:59;;;;;;;;;;;;;;;;;;5093709;28;19912;-81
2023/12/23 04:54:24;;;;;;;;;;;;;;;;;;5091844;28;19914;-80
2023/12/23 04:56:49;;;;;;;;;;;;;;;;;;5093286;28;19908;-81
2023/12/23 04:59:15;;;;;;;;;;;;;;;;;;5091819;28;19908;-81
2023/12/23 05:01:40;;;;;;;;;;;;;;;;;;5091572;28;19908;-81
2023/12/23 05:04:05;;;;;;;;;;;;;;;;;;5091826;28;19912;-80
2023/12/23 05:06:30;;;;;;;;;;;;;;;;;;5093147;28;20388;-81
2023/12/23 05:08:55;;;;;;;;;;;;;;;;;;5092529;28;19912;-81
2023/12/23 05:11:20;;;;;;;;;;;;;;;;;;5092388;28;19908;-81
2023/12/23 05:13:45;;;;;;;;;;;;;;;;;;5092567;28;20350;-81
2023/12/23 05:16:10;;;;;;;;;;;;;;;;;;5092521;28;20361;-81
2023/12/23 05:18:35;;;;;;;;;;;;;;;;;;5093823;28;19908;-81
2023/12/23 05:21:01;;;;;;;;;;;;;;;;;;5093861;28;19908;-81
2023/12/23 05:23:26;;;;;;;;;;;;;;;;;;5091504;28;19908;-81
2023/12/23 05:25:53;;;;;;;;;;;;;;;;;;5092769;28;20029;-81
2023/12/23 05:28:18;;;;;;;;;;;;;;;;;;5090883;28;19943;-81
2023/12/23 05:30:43;;;;;;;;;;;;;;;;;;5091039;28;19947;-81
2023/12/23 05:33:08;;;;;;;;;;;;;;;;;;5091386;28;20350;-81
2023/12/23 05:35:33;;;;;;;;;;;;;;;;;;5092594;28;19908;-81
2023/12/23 05:37:58;;;;;;;;;;;;;;;;;;5091116;28;19931;-81
2023/12/23 05:40:23;;;;;;;;;;;;;;;;;;5091271;28;19908;-81
2023/12/23 05:42:49;;;;;;;;;;;;;;;;;;5092522;28;19954;-81
2023/12/23 05:45:14;;;;;;;;;;;;;;;;;;5091185;28;19912;-81
2023/12/23 05:47:39;;;;;;;;;;;;;;;;;;5092418;28;20287;-81
2023/12/23 05:50:04;;;;;;;;;;;;;;;;;;5091000;28;20381;-81
2023/12/23 05:52:29;;;;;;;;;;;;;;;;;;5090771;28;20019;-81
2023/12/23 05:54:55;;;;;;;;;;;;;;;;;;5091144;28;19915;-81
2023/12/23 05:57:20;;;;;;;;;;;;;;;;;;5092261;28;19944;-81
2023/12/23 05:59:45;;;;;;;;;;;;;;;;;;5090864;28;19962;-81
2023/12/23 06:02:10;;;;;;;;;;;;;;;;;;5092632;28;19908;-81
2023/12/23 06:04:35;;;;;;;;;;;;;;;;;;5092309;28;19915;-81
2023/12/23 06:07:00;;;;;;;;;;;;;;;;;;5092325;28;19916;-81
2023/12/23 06:09:25;;;;;;;;;;;;;;;;;;5090943;28;19915;-81
2023/12/23 06:11:50;;;;;;;;;;;;;;;;;;5090756;28;19912;-81
2023/12/23 06:14:16;;;;;;;;;;;;;;;;;;5090887;28;20332;-81
2023/12/23 06:16:41;;;;;;;;;;;;;;;;;;5092175;28;19912;-81
2023/12/23 06:19:06;;;;;;;;;;;;;;;;;;5090887;28;19915;-81
2023/12/23 06:21:31;;;;;;;;;;;;;;;;;;5090506;28;19999;-81
2023/12/23 06:23:56;;;;;;;;;;;;;;;;;;5090745;28;19908;-81
2023/12/23 06:26:21;;;;;;;;;;;;;;;;;;5082450;28;20326;-81
2023/12/23 06:28:46;;;;;;;;;;;;;;;;;;5092140;28;19985;-80
2023/12/23 06:31:12;;;;;;;;;;;;;;;;;;5090621;28;20357;-80
2023/12/23 06:33:37;;;;;;;;;;;;;;;;;;5094515;28;20395;-80
2023/12/23 06:36:02;;;;;;;;;;;;;;;;;;5095961;28;20179;-80
2023/12/23 06:38:27;;;;;;;;;;;;;;;;;;5095746;28;20433;-80
2023/12/23 06:40:52;;;;;;;;;;;;;;;;;;5095705;28;19908;-80
2023/12/23 06:43:17;;;;;;;;;;;;;;;;;;5101301;28;19908;-81
2023/12/23 06:45:42;;;;;;;;;;;;;;;;;;5100595;28;19915;-82
2023/12/23 06:48:07;;;;;;;;;;;;;;;;;;5102373;28;19912;-82
2023/12/23 06:50:32;;;;;;;;;;;;;;;;;;5100827;28;19908;-83
2023/12/23 06:52:57;;;;;;;;;;;;;;;;;;5100061;28;20324;-82
2023/12/23 06:55:23;;;;;;;;;;;;;;;;;;5100947;28;19912;-82
2023/12/23 06:57:48;;;;;;;;;;;;;;;;;;5101261;28;20553;-82
2023/12/23 07:00:15;;;;;;;;;;;;;;;;;;5099859;28;21463;-82
2023/12/23 07:02:40;;;;;;;;;;;;;;;;;;5098694;28;20377;-81
2023/12/23 07:05:05;;;;;;;;;;;;;;;;;;5094585;28;20293;-81
2023/12/23 07:07:30;;;;;;;;;;;;;;;;;;5096153;28;19945;-82
2023/12/23 07:09:58;;;;;;;;;;;;;;;;;;5099107;28;19912;-82
2023/12/23 07:12:23;;;;;;;;;;;;;;;;;;5099096;28;19909;-82
2023/12/23 07:14:48;;;;;;;;;;;;;;;;;;5100615;28;19908;-81
2023/12/23 07:17:13;;;;;;;;;;;;;;;;;;5100580;28;19908;-82
2023/12/23 07:19:38;;;;;;;;;;;;;;;;;;5100662;28;19915;-81
2023/12/23 07:22:03;;;;;;;;;;;;;;;;;;5099354;28;19915;-82
2023/12/23 07:24:28;;;;;;;;;;;;;;;;;;5090979;28;20002;-82
2023/12/23 07:26:54;;;;;;;;;;;;;;;;;;5100783;28;19947;-81
2023/12/23 07:29:19;;;;;;;;;;;;;;;;;;5099582;28;19908;-82
2023/12/23 07:31:44;;;;;;;;;;;;;;;;;;5099549;28;19908;-83
2023/12/23 07:34:09;;;;;;;;;;;;;;;;;;5101248;28;20345;-81
2023/12/23 07:36:34;;;;;;;;;;;;;;;;;;5097827;28;19915;-81
2023/12/23 07:38:59;;;;;;;;;;;;;;;;;;5095888;28;19958;-82
2023/12/23 07:41:24;;;;;;;;;;;;;;;;;;5091203;28;19958;-83
2023/12/23 07:43:50;;;;;;;;;;;;;;;;;;5100117;28;19909;-82
2023/12/23 07:46:15;;;;;;;;;;;;;;;;;;5099101;28;19908;-82
2023/12/23 07:48:40;;;;;;;;;;;;;;;;;;5092485;28;19961;-82
2023/12/23 07:51:05;;;;;;;;;;;;;;;;;;5095019;28;19908;-82
2023/12/23 07:53:30;;;;;;;;;;;;;;;;;;5100671;28;19923;-81
2023/12/23 07:55:56;;;;;;;;;;;;;;;;;;5098789;28;19908;-81
2023/12/23 07:58:21;;;;;;;;;;;;;;;;;;5098634;28;19919;-82
2023/12/23 08:00:46;;;;;;;;;;;;;;;;;;5098427;28;19912;-82
2023/12/23 08:03:11;;;;;;;;;;;;;;;;;;5098358;28;19908;-83
2023/12/23 08:05:36;;;;;;;;;;;;;;;;;;5098791;28;19959;-82
2023/12/23 08:08:01;;;;;;;;;;;;;;;;;;5097909;28;20289;-82
2023/12/23 08:10:26;;;;;;;;;;;;;;;;;;5096984;28;19915;-81
2023/12/23 08:12:52;;;;;;;;;;;;;;;;;;5098712;28;20387;-82
2023/12/23 08:15:17;;;;;;;;;;;;;;;;;;5097828;28;19908;-82
2023/12/23 08:17:44;;;;;;;;;;;;;;;;;;5096629;28;19912;-82
2023/12/23 08:20:09;;;;;;;;;;;;;;;;;;5098751;28;19912;-82
2023/12/23 08:22:34;;;;;;;;;;;;;;;;;;5096929;28;20012;-82
2023/12/23 08:24:59;;;;;;;;;;;;;;;;;;5094819;28;19959;-82
2023/12/23 08:27:24;;;;;;;;;;;;;;;;;;5095642;28;20007;-82
2023/12/23 08:29:49;;;;;;;;;;;;;;;;;;5094039;28;19966;-81
2023/12/23 08:32:14;;;;;;;;;;;;;;;;;;5094746;28;19908;-82
2023/12/23 08:34:39;;;;;;;;;;;;;;;;;;5078198;28;19908;-82
2023/12/23 08:37:05;;;;;;;;;;;;;;;;;;5095324;28;19970;-82
2023/12/23 08:39:30;;;;;;;;;;;;;;;;;;5095104;28;19908;-82
2023/12/23 08:41:55;;;;;;;;;;;;;;;;;;5094004;28;19908;-83
2023/12/23 08:44:21;;;;;;;;;;;;;;;;;;5097005;28;19931;-81
2023/12/23 08:46:46;;;;;;;;;;;;;;;;;;5096405;28;19912;-82
2023/12/23 08:49:11;;;;;;;;;;;;;;;;;;5097856;28;19912;-81
2023/12/23 08:51:38;;;;;;;;;;;;;;;;;;5088616;28;19969;-82
2023/12/23 08:54:03;;;;;;;;;;;;;;;;;;5086745;28;19916;-82
2023/12/23 08:56:28;;;;;;;;;;;;;;;;;;5093765;28;19934;-82
2023/12/23 08:58:53;;;;;;;;;;;;;;;;;;5093504;28;20301;-82
2023/12/23 09:01:18;;;;;;;;;;;;;;;;;;5079754;28;19913;-82
2023/12/23 09:03:43;;;;;;;;;;;;;;;;;;5094008;28;20353;-81
2023/12/23 09:06:11;;;;;;;;;;;;;;;;;;5092841;28;19911;-81
2023/12/23 09:08:38;;;;;;;;;;;;;;;;;;5087336;28;19998;-81
2023/12/23 09:11:03;;;;;;;;;;;;;;;;;;5086936;28;19916;-81
2023/12/23 09:13:29;;;;;;;;;;;;;;;;;;5092641;28;20281;-81
2023/12/23 09:15:54;;;;;;;;;;;;;;;;;;5088462;28;19919;-81
2023/12/23 09:18:19;;;;;;;;;;;;;;;;;;5088368;28;19959;-83
2023/12/23 09:20:44;;;;;;;;;;;;;;;;;;5084314;28;20429;-83
2023/12/23 09:23:09;;;;;;;;;;;;;;;;;;5082781;28;19920;-82
2023/12/23 09:25:34;;;;;;;;;;;;;;;;;;5073453;28;19913;-82
2023/12/23 09:27:59;;;;;;;;;;;;;;;;;;5080936;28;19912;-82
2023/12/23 09:30:24;;;;;;;;;;;;;;;;;;5091941;28;19915;-83
2023/12/23 09:32:50;;;;;;;;;;;;;;;;;;5088211;28;19963;-83
2023/12/23 09:35:15;;;;;;;;;;;;;;;;;;5080813;28;19924;-82
2023/12/23 09:37:40;;;;;;;;;;;;;;;;;;5085294;28;19908;-82
2023/12/23 09:40:05;;;;;;;;;;;;;;;;;;5087936;28;19912;-82
2023/12/23 09:42:30;;;;;;;;;;;;;;;;;;5080978;28;19995;-82
2023/12/23 09:44:55;;;;;;;;;;;;;;;;;;5082050;28;19908;-83
2023/12/23 09:47:20;;;;;;;;;;;;;;;;;;5082011;28;19966;-83
2023/12/23 09:49:45;;;;;;;;;;;;;;;;;;5087550;28;19908;-83
2023/12/23 09:52:10;;;;;;;;;;;;;;;;;;5081634;28;19962;-82
2023/12/23 09:54:35;;;;;;;;;;;;;;;;;;5083998;28;19962;-82
2023/12/23 09:57:01;;;;;;;;;;;;;;;;;;5085154;28;20382;-82
2023/12/23 09:59:26;;;;;;;;;;;;;;;;;;5084243;28;19908;-82
2023/12/23 10:01:51;;;;;;;;;;;;;;;;;;5085733;28;19920;-82
2023/12/23 10:04:16;;;;;;;;;;;;;;;;;;5087921;28;19915;-82
2023/12/23 10:06:41;;;;;;;;;;;;;;;;;;5081767;28;19965;-82
2023/12/23 10:09:06;;;;;;;;;;;;;;;;;;5084634;28;20366;-82
2023/12/23 10:11:31;;;;;;;;;;;;;;;;;;5091587;28;19916;-82
2023/12/23 10:13:56;;;;;;;;;;;;;;;;;;5092138;28;19908;-83
2023/12/23 10:16:22;;;;;;;;;;;;;;;;;;5089031;28;19939;-82
2023/12/23 10:18:47;;;;;;;;;;;;;;;;;;5089812;28;19961;-82
2023/12/23 10:21:12;;;;;;;;;;;;;;;;;;5097428;28;19912;-82
2023/12/23 10:23:37;;;;;;;;;;;;;;;;;;5093335;28;20003;-83
2023/12/23 10:26:02;;;;;;;;;;;;;;;;;;5091630;28;19912;-82
2023/12/23 10:28:27;;;;;;;;;;;;;;;;;;5099470;28;19916;-82
2023/12/23 10:30:53;;;;;;;;;;;;;;;;;;5096518;28;19908;-81
2023/12/23 10:33:19;;;;;;;;;;;;;;;;;;5092264;28;19909;-83
2023/12/23 10:35:45;;;;;;;;;;;;;;;;;;5094710;28;19913;-83
2023/12/23 10:38:10;;;;;;;;;;;;;;;;;;5084464;28;20412;-83
2023/12/23 10:40:35;;;;;;;;;;;;;;;;;;5086460;28;19908;-81
2023/12/23 10:43:01;;;;;;;;;;;;;;;;;;5087352;28;19908;-83
2023/12/23 10:45:26;;;;;;;;;;;;;;;;;;5087838;28;19912;-82
2023/12/23 10:47:52;;;;;;;;;;;;;;;;;;5089285;28;19912;-83
2023/12/23 10:50:17;;;;;;;;;;;;;;;;;;5085605;28;19915;-83
2023/12/23 10:52:42;;;;;;;;;;;;;;;;;;5083098;28;19920;-82
2023/12/23 10:55:07;;;;;;;;;;;;;;;;;;5083071;28;20054;-82
2023/12/23 10:57:32;;;;;;;;;;;;;;;;;;5085989;28;19934;-83
2023/12/23 10:59:57;;;;;;;;;;;;;;;;;;5084152;28;19958;-82
2023/12/23 11:02:23;;;;;;;;;;;;;;;;;;5084569;28;20286;-82
2023/12/23 11:04:48;;;;;;;;;;;;;;;;;;5086692;28;19908;-83
2023/12/23 11:07:13;;;;;;;;;;;;;;;;;;5085825;28;20314;-82
2023/12/23 11:09:38;;;;;;;;;;;;;;;;;;5082233;28;19909;-83
2023/12/23 11:12:03;;;;;;;;;;;;;;;;;;5084011;28;19908;-83
2023/12/23 11:14:29;;;;;;;;;;;;;;;;;;5085025;28;19962;-83
2023/12/23 11:16:54;;;;;;;;;;;;;;;;;;5086033;28;19908;-83
2023/12/23 11:19:19;;;;;;;;;;;;;;;;;;5086501;28;19907;-83
2023/12/23 11:21:44;;;;;;;;;;;;;;;;;;5085570;28;19961;-83
2023/12/23 11:24:09;;;;;;;;;;;;;;;;;;5086174;28;20250;-84
2023/12/23 11:26:34;;;;;;;;;;;;;;;;;;5086082;28;19912;-84
2023/12/23 11:28:59;;;;;;;;;;;;;;;;;;5087582;28;19919;-83
2023/12/23 11:31:25;;;;;;;;;;;;;;;;;;5091406;28;19908;-84
2023/12/23 11:33:50;;;;;;;;;;;;;;;;;;5097389;28;19908;-84
2023/12/23 11:36:15;;;;;;;;;;;;;;;;;;5088219;28;19951;-85
2023/12/23 11:38:40;;;;;;;;;;;;;;;;;;5089935;28;20352;-84
2023/12/23 11:41:05;;;;;;;;;;;;;;;;;;5098680;28;19908;-84
2023/12/23 11:43:30;;;;;;;;;;;;;;;;;;5086441;28;20281;-84
2023/12/23 11:45:55;;;;;;;;;;;;;;;;;;5086612;28;19956;-83
2023/12/23 11:48:20;;;;;;;;;;;;;;;;;;5093072;28;20259;-84
2023/12/23 11:50:45;;;;;;;;;;;;;;;;;;5089253;28;19908;-84
2023/12/23 11:53:11;;;;;;;;;;;;;;;;;;5098101;28;19919;-83
2023/12/23 11:55:37;;;;;;;;;;;;;;;;;;5086380;28;19909;-84
2023/12/23 11:58:03;;;;;;;;;;;;;;;;;;5092834;28;19915;-84
2023/12/23 12:00:28;;;;;;;;;;;;;;;;;;5093623;28;19912;-84
2023/12/23 12:02:53;;;;;;;;;;;;;;;;;;5084709;28;20273;-84
2023/12/23 12:05:18;;;;;;;;;;;;;;;;;;5089416;28;20431;-85
2023/12/23 12:07:43;;;;;;;;;;;;;;;;;;5095756;28;19912;-85
2023/12/23 12:10:08;;;;;;;;;;;;;;;;;;5088846;28;19915;-86
2023/12/23 12:12:33;;;;;;;;;;;;;;;;;;5083895;28;19931;-84
2023/12/23 12:14:58;;;;;;;;;;;;;;;;;;5086034;28;20361;-84
2023/12/23 12:17:24;;;;;;;;;;;;;;;;;;5087766;28;19945;-84
2023/12/23 12:19:49;;;;;;;;;;;;;;;;;;5090062;28;19908;-85
2023/12/23 12:22:15;;;;;;;;;;;;;;;;;;5085861;28;20262;-85
2023/12/23 12:24:42;;;;;;;;;;;;;;;;;;5089018;28;19965;-84
2023/12/23 12:27:07;;;;;;;;;;;;;;;;;;5098943;28;19919;-84
2023/12/23 12:29:32;;;;;;;;;;;;;;;;;;5089716;28;19908;-84
2023/12/23 12:31:57;;;;;;;;;;;;;;;;;;5088198;28;19912;-84
2023/12/23 12:34:23;;;;;;;;;;;;;;;;;;5083012;28;20547;-87
2023/12/23 12:36:48;;;;;;;;;;;;;;;;;;5088181;28;19962;-87
2023/12/23 12:39:14;;;;;;;;;;;;;;;;;;5089552;28;19908;-87
2023/12/23 12:44:08;;;;;;;;;;;;;;;;;;5050404;28;20387;-85
2023/12/23 12:46:33;;;;;;;;;;;;;;;;;;5052562;28;20401;-83
2023/12/23 12:48:58;;;;;;;;;;;;;;;;;;5052635;28;19915;-89
2023/12/23 12:51:23;;;;;;;;;;;;;;;;;;5052807;28;19909;-83
2023/12/23 12:53:49;;;;;;;;;;;;;;;;;;5056072;28;19915;-84
2023/12/23 12:56:20;;;;;;;;;;;;;;;;;;5074176;28;19909;-84
2023/12/23 12:58:45;;;;;;;;;;;;;;;;;;5056652;28;19909;-83
2023/12/23 13:01:10;;;;;;;;;;;;;;;;;;5053455;28;19962;-84
2023/12/23 13:03:36;;;;;;;;;;;;;;;;;;5056462;28;19909;-83
2023/12/23 13:06:01;;;;;;;;;;;;;;;;;;5056690;28;20398;-84
2023/12/23 13:08:26;;;;;;;;;;;;;;;;;;5074069;28;19912;-84
2023/12/23 13:10:51;;;;;;;;;;;;;;;;;;5074124;28;19954;-83
2023/12/23 13:13:17;;;;;;;;;;;;;;;;;;5056126;28;20003;-83
2023/12/23 13:15:42;;;;;;;;;;;;;;;;;;5071808;28;20071;-85
2023/12/23 13:18:07;;;;;;;;;;;;;;;;;;5055464;28;19912;-86
2023/12/23 13:20:32;;;;;;;;;;;;;;;;;;5073758;28;19912;-86
2023/12/23 13:22:57;;;;;;;;;;;;;;;;;;5073563;28;19936;-85
2023/12/23 13:25:22;;;;;;;;;;;;;;;;;;5055774;28;19909;-87
2023/12/23 13:27:47;;;;;;;;;;;;;;;;;;5055850;28;20371;-86
2023/12/23 13:30:13;;;;;;;;;;;;;;;;;;5054789;28;20007;-86
2023/12/23 13:32:38;;;;;;;;;;;;;;;;;;5073796;28;19912;-87
2023/12/23 13:35:03;;;;;;;;;;;;;;;;;;5074251;28;20302;-86
2023/12/23 13:37:28;;;;;;;;;;;;;;;;;;5073713;28;19912;-86
2023/12/23 13:39:53;;;;;;;;;;;;;;;;;;5073800;28;20023;-86
2023/12/23 13:42:19;;;;;;;;;;;;;;;;;;5054570;28;19916;-86
2023/12/23 13:44:44;;;;;;;;;;;;;;;;;;5049245;28;19916;-86
2023/12/23 13:47:10;;;;;;;;;;;;;;;;;;5055422;28;19913;-86
2023/12/23 13:49:35;;;;;;;;;;;;;;;;;;5073005;28;19908;-84
2023/12/23 13:52:00;;;;;;;;;;;;;;;;;;5073414;28;19955;-85
2023/12/23 13:54:25;;;;;;;;;;;;;;;;;;5073515;28;19999;-85
2023/12/23 13:56:50;;;;;;;;;;;;;;;;;;5073318;28;20274;-85
2023/12/23 13:59:15;;;;;;;;;;;;;;;;;;5072722;28;19909;-84
2023/12/23 14:01:40;;;;;;;;;;;;;;;;;;5072548;28;19916;-86
2023/12/23 14:04:05;;;;;;;;;;;;;;;;;;5069955;28;19909;-85
2023/12/23 14:06:30;;;;;;;;;;;;;;;;;;5073159;28;19909;-86
2023/12/23 14:08:56;;;;;;;;;;;;;;;;;;5073103;28;19909;-85
2023/12/23 14:11:21;;;;;;;;;;;;;;;;;;5054497;28;19932;-86
2023/12/23 14:13:46;;;;;;;;;;;;;;;;;;5054678;28;19908;-85
2023/12/23 14:16:11;;;;;;;;;;;;;;;;;;5073199;28;19912;-84
2023/12/23 14:18:36;;;;;;;;;;;;;;;;;;5073212;28;19931;-86
2023/12/23 14:21:02;;;;;;;;;;;;;;;;;;5072867;28;20375;-85
2023/12/23 14:23:27;;;;;;;;;;;;;;;;;;5071701;28;19908;-86
2023/12/23 14:25:52;;;;;;;;;;;;;;;;;;5072299;28;19931;-85
2023/12/23 14:28:17;;;;;;;;;;;;;;;;;;5071654;28;19912;-86
2023/12/23 14:30:42;;;;;;;;;;;;;;;;;;5053950;28;19932;-86
2023/12/23 14:33:07;;;;;;;;;;;;;;;;;;5053991;28;19931;-86
2023/12/23 14:35:32;;;;;;;;;;;;;;;;;;5072167;28;20347;-86
2023/12/23 14:37:57;;;;;;;;;;;;;;;;;;5054146;28;20007;-86
2023/12/23 14:40:22;;;;;;;;;;;;;;;;;;5053841;28;19977;-86
2023/12/23 14:42:48;;;;;;;;;;;;;;;;;;5053727;28;19998;-85
2023/12/23 14:45:13;;;;;;;;;;;;;;;;;;5072097;28;20322;-86
2023/12/23 14:47:39;;;;;;;;;;;;;;;;;;5054227;28;19919;-86
2023/12/23 14:50:04;;;;;;;;;;;;;;;;;;5053904;28;19958;-86
2023/12/23 14:52:29;;;;;;;;;;;;;;;;;;5072055;28;19909;-85
2023/12/23 14:54:54;;;;;;;;;;;;;;;;;;5075305;28;19931;-86
2023/12/23 14:57:19;;;;;;;;;;;;;;;;;;5057733;28;20381;-85
2023/12/23 14:59:44;;;;;;;;;;;;;;;;;;5076372;28;19909;-85
2023/12/23 15:02:09;;;;;;;;;;;;;;;;;;5075856;28;20315;-85
2023/12/23 15:04:34;;;;;;;;;;;;;;;;;;5076866;28;20002;-85
2023/12/23 15:07:00;;;;;;;;;;;;;;;;;;5058784;28;19919;-85
2023/12/23 15:09:27;;;;;;;;;;;;;;;;;;5058159;28;20283;-85
2023/12/23 15:11:52;;;;;;;;;;;;;;;;;;5076081;28;19916;-85
2023/12/23 15:14:17;;;;;;;;;;;;;;;;;;5057628;28;19909;-86
2023/12/23 15:16:43;;;;;;;;;;;;;;;;;;5057857;28;19915;-85
2023/12/23 15:19:08;;;;;;;;;;;;;;;;;;5075592;28;19915;-85
2023/12/23 15:21:33;;;;;;;;;;;;;;;;;;5075562;28;19935;-85
2023/12/23 15:23:58;;;;;;;;;;;;;;;;;;5075275;28;20284;-85
2023/12/23 15:26:24;;;;;;;;;;;;;;;;;;5074343;28;19913;-86
2023/12/23 15:28:49;;;;;;;;;;;;;;;;;;5056751;28;19915;-86
2023/12/23 15:31:14;;;;;;;;;;;;;;;;;;5074794;28;19908;-85
2023/12/23 15:33:39;;;;;;;;;;;;;;;;;;5075413;28;19908;-85
2023/12/23 15:36:05;;;;;;;;;;;;;;;;;;5075614;28;19909;-86
2023/12/23 15:38:30;;;;;;;;;;;;;;;;;;5074884;28;19909;-85
2023/12/23 15:40:55;;;;;;;;;;;;;;;;;;5074951;28;19912;-84
2023/12/23 15:43:20;;;;;;;;;;;;;;;;;;5074570;28;19916;-88
2023/12/23 15:45:45;;;;;;;;;;;;;;;;;;5075480;28;19919;-86
2023/12/23 15:48:10;;;;;;;;;;;;;;;;;;5074932;28;20320;-86
2023/12/23 15:50:35;;;;;;;;;;;;;;;;;;5074732;28;19915;-85
2023/12/23 15:53:01;;;;;;;;;;;;;;;;;;5057068;28;19961;-86
2023/12/23 15:55:26;;;;;;;;;;;;;;;;;;5057264;28;19958;-85
2023/12/23 15:57:51;;;;;;;;;;;;;;;;;;5056659;28;19962;-85
2023/12/23 16:00:16;;;;;;;;;;;;;;;;;;5075192;28;20003;-85
2023/12/23 16:02:41;;;;;;;;;;;;;;;;;;5056567;28;19954;-85
2023/12/23 16:05:07;;;;;;;;;;;;;;;;;;5074197;28;19909;-85
2023/12/23 16:07:33;;;;;;;;;;;;;;;;;;5074101;28;20331;-85
2023/12/23 16:09:58;;;;;;;;;;;;;;;;;;5074120;28;20310;-85
2023/12/23 16:12:23;;;;;;;;;;;;;;;;;;5073177;28;19916;-85
2023/12/23 16:14:48;;;;;;;;;;;;;;;;;;5071056;28;19916;-85
2023/12/23 16:17:13;;;;;;;;;;;;;;;;;;5055414;28;19919;-85
2023/12/23 16:19:38;;;;;;;;;;;;;;;;;;5062803;28;19909;-83
2023/12/23 16:22:03;;;;;;;;;;;;;;;;;;5073240;28;19908;-85
2023/12/23 16:24:29;;;;;;;;;;;;;;;;;;5073370;28;19919;-86
2023/12/23 16:26:54;;;;;;;;;;;;;;;;;;5055519;28;19913;-87
2023/12/23 16:29:19;;;;;;;;;;;;;;;;;;5069268;28;19919;-84
2023/12/23 16:31:44;;;;;;;;;;;;;;;;;;5072917;28;19915;-84
2023/12/23 16:34:09;;;;;;;;;;;;;;;;;;5073386;28;19944;-85